x

Mid Gulf - 180 Nm South Of Southwest Pass, La (42001) Wave Buoy

4:50am - Thu 28th Aug 2014 All times are UTC.

  • Sig Wave height 4.9ft
  • Peak Period 7s
  • Average Period 5s
  • Wind
    20mph, 22mph gusts
  • Sea Temp 87°f
  • Air Temp 85°f
  • Sea Pressure 1014.1mb

More Historic Weather Station data

Upgrade to MSW Pro to gain access to the past 30 days of data for over 8000 Wavebouys and Weather Stations around the globe.

Join Pro

Comparision Forecast

View Surf forecast
   
Thu 08/28 4:50am 5ft 7s 5s 20 22 mph 1014.1mb 87f 85f
3:50am 5ft 6s 5s 20 25 mph 1014.2mb 87f 86f
2:50am 5ft 7s 5s 16 20 mph 1014.3mb 87f 85f
1:50am 5ft 7s 5s 16 18 mph 1013.8mb 87f 85f
12:50am 5ft 7s 5s 18 20 mph 1013.5mb 87f 85f
Wed 08/27 11:50pm 5ft 7s 5s 20 22 mph 1013.2mb 87f 85f
10:50pm 6ft 7s 6s 16 20 mph 1012.6mb 87f 85f
9:50pm 5ft 7s 6s 22 25 mph 1012.7mb 87f 84f
8:50pm 5ft 7s 6s 16 20 mph 1012.8mb 87f 85f
7:50pm 5ft 7s 6s 13 16 mph 1013.6mb 87f 86f
6:50pm 5ft 7s 6s 11 13 mph 1014.1mb 87f 86f
5:50pm 5ft 7s 6s 11 13 mph 1014.5mb 87f 85f
4:50pm 4.5ft 7s 6s 11
mph
1014.6mb 87f 86f
3:50pm 5ft 7s 6s 9 11 mph 1014.7mb 87f 86f
2:50pm 5ft 8s 6s 9 13 mph 1014.3mb 87f 86f
1:50pm 4.5ft 8s 5s 9 11 mph 1014.1mb 86f 85f
12:50pm 5ft 8s 5s 11 16 mph 1013.6mb 86f 85f
11:50am 4.5ft 7s 5s 13 16 mph 1012.8mb 86f 85f
10:50am 4.5ft 8s 5s 16 20 mph 1012.3mb 87f 85f
9:50am 5ft 7s 5s 18 22 mph 1011.9mb 87f 85f
8:50am 4.5ft 7s 5s 18 22 mph 1011.8mb 87f 85f
7:50am 4.5ft 7s 5s 18 22 mph 1011.9mb 87f 86f
6:50am 4.5ft 7s 5s 16 18 mph 1012.5mb 87f 85f
5:50am 5ft 8s 5s 18 20 mph 1012.7mb 87f 86f
4:50am 5ft 8s 5s 18 22 mph 1012.7mb 87f 86f
3:50am 5ft 8s 5s 20 22 mph 1012.7mb 87f 86f
2:50am 5ft 8s 5s 18 22 mph 1012.7mb 87f 86f
1:50am 5.5ft 8s 6s 18 22 mph 1012.3mb 87f 86f
12:50am 5ft 8s 5s 18 22 mph 1012mb 87f 85f
Tue 08/26 11:50pm 5ft 8s 6s 20 22 mph 1011.6mb 87f 84f
10:50pm 5ft 8s 7s 13 18 mph 1011.6mb 88f 86f
9:50pm 4.5ft 8s 6s 7 9 mph 1011.7mb 88f 85f
8:50pm 4.5ft 8s 6s 4 7 mph 1011.8mb 88f 85f
7:50pm 5ft 8s 6s 11 16 mph 1012.1mb 88f 83f
6:50pm 4.5ft 8s 6s 2 7 mph 1012.8mb 89f 86f
5:50pm 4.5ft 8s 6s 2
mph
1013.1mb 88f 86f
4:50pm 4ft 8s 6s  -  2 mph 1013.2mb 87f 86f
3:50pm 4ft 8s 6s 9 11 mph 1013mb 87f 84f
2:50pm 4ft 7s 6s 2
mph
1012.9mb 86f 85f
1:50pm 4ft 8s 6s 2 4 mph 1012.4mb 86f 85f
12:50pm 3ft 7s 5s 7
mph
1011.7mb 86f 85f
11:50am 2.5ft 6s 5s 4 7 mph 1011.3mb 86f 85f
10:50am 2.5ft 7s 5s 2 4 mph 1011.1mb 86f 84f
9:50am 2.5ft 6s 5s 4
mph
1010.8mb 86f 83f
8:50am 2.5ft 7s 5s 4
mph
1010.9mb 86f 81f
7:50am 2.5ft 7s 5s 7 11 mph 1011mb 87f 81f
6:50am 2ft 5s 4s 20 22 mph 1011.2mb 87f 81f
5:50am 2.5ft 5s 4s 9 13 mph 1011.4mb 87f 85f
4:50am 2.5ft 5s 4s 9 11 mph 1011.8mb 87f 85f
3:50am 2.5ft 5s 4s 11 13 mph 1011.7mb 87f 85f
2:50am 2.5ft 5s 4s 13 16 mph 1011.3mb 87f 85f
1:50am 2.5ft 6s 4s 13 16 mph 1010.8mb 87f 85f
12:50am 3ft 5s 4s 16 18 mph 1010.5mb 87f 84f
Mon 08/25 11:50pm 3ft 6s 4s 16 18 mph 1010.2mb 87f 84f
10:50pm 3.5ft 5s 4s 13 16 mph 1010.4mb 87f 84f
9:50pm 3.5ft 5s 4s 9 11 mph 1010.7mb 87f 83f
8:50pm 2.5ft 4s 4s 11 16 mph 1011.6mb 87f 83f
7:50pm 1.6ft 3s 3s 34 45 mph 1011.7mb 87f 81f
6:50pm 1.6ft 3s 3s 11 13 mph 1011.3mb 87f 87f
5:50pm 1.6ft 3s 3s 13 16 mph 1012mb 87f 87f
4:50pm 1.6ft 3s 3s 13 16 mph 1012.4mb 87f 87f
3:50pm 1.6ft 3s 3s 13 16 mph 1012.7mb 87f 87f
2:50pm 1.6ft 3s 3s 13 16 mph 1012.2mb 87f 86f
1:50pm 1.3ft 3s 3s 13 16 mph 1012.2mb 87f 86f
12:50pm 1ft 4s 3s 13 16 mph 1012mb 87f 86f
11:50am 1ft 4s 3s 11 13 mph 1011.6mb 87f 86f
10:50am 0.7ft  -  3s 9 11 mph 1011.6mb 87f 86f
9:50am 1ft 4s 4s 9 11 mph 1011.6mb 87f 86f
8:50am 0.7ft  -  4s 9
mph
1011.7mb 87f 85f
7:50am 1ft 4s 3s 4 7 mph 1011.8mb 87f 85f
6:50am 1ft 4s 3s 7 9 mph 1012.3mb 87f 85f
5:50am 1ft 3s 4s 7 9 mph 1012.9mb 87f 85f
4:50am 1ft 4s 3s 7 9 mph 1013mb 87f 85f
3:50am 1ft 3s 3s 9 11 mph 1013mb 87f 86f
2:50am 1ft 3s 3s 7 9 mph 1012.5mb 87f 85f
1:50am 1ft 3s 3s 9 11 mph 1012.3mb 87f 86f
12:50am 1ft 2s 3s 9 11 mph 1011.9mb 87f 86f
Sun 08/24 11:50pm 1ft 3s 3s 9 11 mph 1011.8mb 87f 86f
10:50pm 1ft 4s 3s 11 13 mph 1012.2mb 87f 86f
9:50pm 1ft 3s 3s 11 13 mph 1012.2mb 87f 86f
8:50pm 0.7ft  -  3s 9 13 mph 1012.6mb 87f 85f
7:50pm 0.7ft  -  4s 9
mph
1013mb 87f 85f
6:50pm 0.7ft  -  4s 7 9 mph 1013.5mb 87f 85f
5:50pm 1ft 6s 4s 7 9 mph 1014mb 87f 85f
4:50pm 1ft 4s 4s 7 9 mph 1014.6mb 87f 85f
3:50pm 1ft 3s 4s 9 11 mph 1014.9mb 87f 85f
2:50pm 1ft 3s 4s 9 11 mph 1014.6mb 87f 85f
1:50pm 1ft 4s 4s 9 11 mph 1014.4mb 86f 85f
12:50pm 1ft 4s 4s 7 9 mph 1014.4mb 86f 85f
11:50am 1ft 4s 4s 7 9 mph 1013.9mb 86f 84f
10:50am 1ft 4s 4s 4 7 mph 1013.1mb 86f 84f
9:50am 1ft 4s 4s 2 4 mph 1013.1mb 87f 84f
8:50am 1ft 4s 4s  -  2 mph 1013.1mb 86f 84f
7:50am 1ft 4s 4s 4
mph
1013.5mb 87f 84f
6:50am 1ft 4s 4s  -  2 mph 1014mb 87f 85f